createdAt,value
2018-03-09T00:02:04.784Z,3.20
2018-03-09T00:04:40.126Z,3.62
2018-03-09T00:07:15.028Z,3.63
2018-03-09T00:09:49.863Z,4.50
2018-03-09T00:12:25.303Z,3.35
2018-03-09T00:15:00.380Z,4.00
2018-03-09T00:17:35.357Z,3.33
2018-03-09T00:20:10.628Z,3.97
2018-03-09T00:22:45.490Z,5.87
2018-03-09T00:25:20.791Z,2.97
2018-03-09T00:27:55.503Z,5.33
2018-03-09T00:30:30.467Z,5.20
2018-03-09T00:33:05.431Z,5.00
2018-03-09T00:35:40.411Z,4.90
2018-03-09T00:38:15.632Z,5.30
2018-03-09T00:40:50.639Z,4.60
2018-03-09T00:43:25.673Z,4.67
2018-03-09T00:46:00.599Z,6.20
2018-03-09T00:48:35.828Z,2.90
2018-03-09T00:51:17.829Z,5.50
2018-03-09T00:53:52.756Z,5.10
2018-03-09T00:56:28.269Z,4.80
2018-03-09T00:59:03.423Z,4.70
2018-03-09T01:01:38.543Z,4.90
2018-03-09T01:04:13.165Z,5.30
2018-03-09T01:06:48.475Z,5.50
2018-03-09T01:09:23.802Z,3.53
2018-03-09T01:11:58.626Z,5.30
2018-03-09T01:14:33.530Z,5.03
2018-03-09T01:17:08.654Z,5.10
2018-03-09T01:19:43.480Z,4.93
2018-03-09T01:22:18.499Z,4.57
2018-03-09T01:24:53.594Z,4.40
2018-03-09T01:27:28.586Z,2.97
2018-03-09T01:30:03.331Z,4.40
2018-03-09T01:32:38.551Z,5.10
2018-03-09T01:35:13.666Z,3.83
2018-03-09T01:37:48.514Z,5.10
2018-03-09T01:40:23.830Z,3.83
2018-03-09T01:42:58.634Z,5.27
2018-03-09T01:45:33.639Z,4.77
2018-03-09T01:48:08.639Z,3.80
2018-03-09T01:50:43.626Z,5.13
2018-03-09T01:53:18.983Z,4.78
2018-03-09T01:55:53.819Z,4.30
2018-03-09T01:58:28.960Z,2.30
2018-03-09T02:01:04.592Z,5.75
2018-03-09T02:03:39.858Z,4.90
2018-03-09T02:06:14.662Z,4.70
2018-03-09T02:08:49.500Z,4.68
2018-03-09T02:11:24.046Z,6.20
2018-03-09T02:13:58.639Z,4.67
2018-03-09T02:16:33.757Z,3.43
2018-03-09T02:19:08.827Z,6.23
2018-03-09T02:21:43.642Z,5.55
2018-03-09T02:24:18.726Z,5.25
2018-03-09T02:26:53.723Z,6.20
2018-03-09T02:29:28.716Z,3.87
2018-03-09T02:32:03.780Z,5.17
2018-03-09T02:34:38.719Z,6.20
2018-03-09T02:37:13.699Z,3.75
2018-03-09T02:39:48.796Z,4.70
2018-03-09T02:42:23.806Z,5.62
2018-03-09T02:44:58.760Z,5.13
2018-03-09T02:47:33.987Z,4.47
2018-03-09T02:50:08.689Z,6.00
2018-03-09T02:52:43.710Z,5.40
2018-03-09T02:55:18.835Z,4.83
2018-03-09T02:57:53.747Z,6.25
2018-03-09T03:00:28.843Z,4.83
2018-03-09T03:03:03.699Z,4.00
2018-03-09T03:05:38.941Z,6.60
2018-03-09T03:08:13.784Z,5.67
2018-03-09T03:10:49.022Z,4.70
2018-03-09T03:13:24.433Z,6.30
2018-03-09T03:15:59.952Z,6.23
2018-03-09T03:18:34.924Z,4.83
2018-03-09T03:21:10.194Z,6.30
2018-03-09T03:23:45.156Z,5.67
2018-03-09T03:26:20.098Z,6.00
2018-03-09T03:28:55.135Z,6.83
2018-03-09T03:31:30.224Z,7.50
2018-03-09T03:34:05.450Z,5.33
2018-03-09T03:36:40.879Z,5.75
2018-03-09T03:39:16.025Z,7.18
2018-03-09T03:41:50.955Z,7.23
2018-03-09T03:44:25.630Z,5.17
2018-03-09T03:47:00.899Z,4.73
2018-03-09T03:49:35.871Z,7.17
2018-03-09T03:52:10.906Z,3.55
2018-03-09T03:54:45.428Z,6.30
2018-03-09T03:57:20.279Z,5.87
2018-03-09T03:59:55.027Z,5.43
2018-03-09T04:02:29.955Z,5.57
2018-03-09T04:05:05.116Z,5.40
2018-03-09T04:07:39.954Z,7.40
2018-03-09T04:10:15.310Z,6.50
2018-03-09T04:12:50.119Z,5.30
2018-03-09T04:15:25.251Z,3.43
2018-03-09T04:18:00.299Z,5.90
2018-03-09T04:20:35.506Z,4.87
2018-03-09T04:23:10.943Z,7.20
2018-03-09T04:25:45.966Z,6.07
2018-03-09T04:28:21.390Z,6.20
2018-03-09T04:30:56.120Z,7.23
2018-03-09T04:33:31.299Z,8.20
2018-03-09T04:36:06.048Z,6.43
2018-03-09T04:38:41.036Z,7.30
2018-03-09T04:41:15.458Z,6.70
2018-03-09T04:43:49.999Z,6.50
2018-03-09T04:46:25.146Z,6.80
2018-03-09T04:48:59.640Z,6.90
2018-03-09T04:51:34.959Z,7.78
2018-03-09T04:54:10.093Z,6.63
2018-03-09T04:56:44.907Z,4.97
2018-03-09T04:59:19.575Z,6.30
2018-03-09T05:01:54.510Z,7.60
2018-03-09T05:04:29.533Z,6.90
2018-03-09T05:07:05.003Z,7.25
2018-03-09T05:09:39.639Z,7.60
2018-03-09T05:12:15.054Z,6.60
2018-03-09T05:14:49.934Z,7.62
2018-03-09T05:17:25.095Z,8.00
2018-03-09T05:20:00.430Z,6.83
2018-03-09T05:22:35.323Z,9.57
2018-03-09T05:25:10.369Z,7.63
2018-03-09T05:27:45.420Z,9.37
2018-03-09T05:30:21.064Z,8.15
2018-03-09T05:32:56.161Z,8.47
2018-03-09T05:35:31.143Z,6.33
2018-03-09T05:38:06.291Z,8.23
2018-03-09T05:40:40.587Z,8.33
2018-03-09T05:43:15.411Z,8.10
2018-03-09T05:45:50.631Z,7.10
2018-03-09T05:48:25.666Z,7.60
2018-03-09T05:51:00.204Z,8.13
2018-03-09T05:53:35.330Z,8.53
2018-03-09T05:56:10.117Z,7.40
2018-03-09T05:58:44.979Z,9.18
2018-03-09T06:01:19.636Z,6.00
2018-03-09T06:03:54.501Z,7.33
2018-03-09T06:06:29.766Z,7.37
2018-03-09T06:09:04.682Z,7.10
2018-03-09T06:11:40.067Z,5.05
2018-03-09T06:14:15.222Z,9.60
2018-03-09T06:16:50.249Z,9.68
2018-03-09T06:19:25.346Z,4.20
2018-03-09T06:22:00.390Z,10.33
2018-03-09T06:24:35.058Z,10.80
2018-03-09T06:27:10.568Z,10.97
2018-03-09T06:29:45.305Z,9.77
2018-03-09T06:32:20.287Z,12.47
2018-03-09T06:34:55.610Z,12.50
2018-03-09T06:37:31.171Z,11.10
2018-03-09T06:40:06.434Z,13.53
2018-03-09T06:42:41.735Z,10.10
2018-03-09T06:45:16.814Z,11.23
2018-03-09T06:47:51.905Z,12.50
2018-03-09T06:50:27.240Z,8.88
2018-03-09T06:53:02.481Z,16.90
2018-03-09T06:55:38.226Z,18.83
2018-03-09T06:58:13.476Z,13.70
2018-03-09T07:00:48.059Z,12.82
2018-03-09T07:03:23.575Z,14.73
2018-03-09T07:05:58.724Z,15.17
2018-03-09T07:08:34.174Z,18.35
2018-03-09T07:11:08.841Z,13.83
2018-03-09T07:13:43.671Z,16.93
2018-03-09T07:16:18.626Z,19.05
2018-03-09T07:18:53.555Z,18.07
2018-03-09T07:21:27.912Z,21.90
2018-03-09T07:24:03.347Z,21.48
2018-03-09T07:26:38.286Z,24.15
2018-03-09T07:29:13.346Z,26.30
2018-03-09T07:31:48.393Z,16.83
2018-03-09T07:34:23.649Z,22.53
2018-03-09T07:36:58.610Z,16.80
2018-03-09T07:39:33.660Z,18.70
2018-03-09T07:42:08.977Z,17.90
2018-03-09T07:44:43.965Z,19.50
2018-03-09T07:47:18.915Z,18.27
2018-03-09T07:49:54.001Z,18.30
2018-03-09T07:52:29.760Z,10.70
2018-03-09T07:55:04.466Z,19.77
2018-03-09T07:57:39.811Z,21.17
2018-03-09T08:00:15.012Z,24.10
2018-03-09T08:02:52.334Z,24.87
2018-03-09T08:05:27.569Z,20.37
2018-03-09T08:08:02.854Z,24.10
2018-03-09T08:10:38.479Z,28.12
2018-03-09T08:13:13.164Z,24.20
2018-03-09T08:15:47.679Z,18.57
2018-03-09T08:18:22.976Z,20.87
2018-03-09T08:20:57.621Z,21.37
2018-03-09T08:23:33.425Z,19.27
2018-03-09T08:26:08.959Z,16.85
2018-03-09T08:28:43.893Z,16.77
2018-03-09T08:31:19.203Z,17.37
2018-03-09T08:33:53.794Z,16.97
2018-03-09T08:36:28.828Z,18.20
2018-03-09T08:39:03.541Z,19.10
2018-03-09T08:41:38.792Z,18.80
2018-03-09T08:46:54.027Z,17.83
2018-03-09T08:49:29.039Z,15.60
2018-03-09T08:52:04.183Z,19.23
2018-03-09T08:54:39.193Z,16.47
2018-03-09T08:57:14.507Z,17.55
2018-03-09T08:59:49.695Z,20.10
2018-03-09T09:02:24.952Z,19.00
2018-03-09T09:05:00.059Z,12.77
2018-03-09T09:07:35.567Z,20.10
2018-03-09T09:10:10.947Z,18.10
2018-03-09T09:12:46.083Z,18.20
2018-03-09T09:15:21.187Z,20.60
2018-03-09T09:17:56.768Z,21.47
2018-03-09T09:20:31.977Z,20.20
2018-03-09T09:23:07.196Z,13.57
2018-03-09T09:25:42.685Z,19.63
2018-03-09T09:28:17.990Z,22.10
2018-03-09T09:30:52.820Z,20.30
2018-03-09T09:33:27.863Z,23.17
2018-03-09T09:36:04.072Z,25.10
2018-03-09T09:38:38.815Z,18.73
2018-03-09T09:41:14.036Z,11.57
2018-03-09T09:43:49.046Z,16.80
2018-03-09T09:46:24.071Z,16.57
2018-03-09T09:48:59.190Z,13.00
2018-03-09T09:51:34.983Z,11.10
2018-03-09T09:54:10.231Z,14.47
2018-03-09T09:56:45.150Z,18.73
2018-03-09T09:59:19.832Z,19.57
2018-03-09T10:01:54.954Z,20.03
2018-03-09T10:04:30.162Z,19.90
2018-03-09T10:07:05.112Z,19.30
2018-03-09T10:09:40.179Z,19.80
2018-03-09T10:12:15.699Z,21.05
2018-03-09T10:14:50.983Z,19.70
2018-03-09T10:17:25.884Z,22.40
2018-03-09T10:20:00.836Z,14.10
2018-03-09T10:22:36.068Z,20.80
2018-03-09T10:25:11.076Z,18.60
2018-03-09T10:27:46.114Z,19.00
2018-03-09T10:30:21.244Z,20.30
2018-03-09T10:32:57.536Z,22.10
2018-03-09T10:35:32.902Z,22.80
2018-03-09T10:38:09.227Z,19.05
2018-03-09T10:40:44.340Z,18.63
2018-03-09T10:43:19.356Z,13.82
2018-03-09T10:45:54.876Z,22.35
2018-03-09T10:48:29.991Z,17.43
2018-03-09T10:51:05.164Z,13.77
2018-03-09T10:53:39.988Z,19.53
2018-03-09T10:56:15.167Z,14.20
2018-03-09T10:58:49.971Z,18.80
2018-03-09T11:01:25.182Z,22.30
2018-03-09T11:04:00.027Z,18.80
2018-03-09T11:06:35.002Z,18.83
2018-03-09T11:09:10.276Z,20.67
2018-03-09T11:11:44.980Z,16.20
2018-03-09T11:14:20.201Z,15.63
2018-03-09T11:16:54.955Z,18.03
2018-03-09T11:19:30.015Z,17.33
2018-03-09T11:22:05.092Z,14.80
2018-03-09T11:24:40.135Z,18.37
2018-03-09T11:27:15.347Z,17.73
2018-03-09T11:29:50.284Z,15.63
2018-03-09T11:32:25.336Z,18.13
2018-03-09T11:35:01.354Z,20.17
2018-03-09T11:37:36.090Z,18.60
2018-03-09T11:40:11.229Z,17.97
2018-03-09T11:42:46.259Z,17.63
2018-03-09T11:45:21.506Z,17.97
2018-03-09T11:47:56.479Z,14.40
2018-03-09T11:50:31.880Z,19.48
2018-03-09T11:53:07.019Z,18.33
2018-03-09T11:55:42.008Z,20.27
2018-03-09T11:58:17.297Z,19.77
2018-03-09T12:00:52.142Z,20.30
2018-03-09T12:03:26.991Z,17.52
2018-03-09T12:06:02.050Z,18.62
2018-03-09T12:08:37.105Z,15.67
2018-03-09T12:11:12.003Z,15.63
2018-03-09T12:13:47.065Z,17.63
2018-03-09T12:16:22.407Z,16.15
2018-03-09T12:18:57.691Z,15.20
2018-03-09T12:21:33.022Z,16.20
2018-03-09T12:24:08.043Z,15.70
2018-03-09T12:26:43.055Z,14.68
2018-03-09T12:29:18.071Z,9.97
2018-03-09T12:31:53.113Z,13.10
2018-03-09T12:34:29.007Z,11.50
2018-03-09T12:37:04.266Z,12.30
2018-03-09T12:39:39.472Z,12.20
2018-03-09T12:42:14.498Z,12.23
2018-03-09T12:44:49.548Z,10.23
2018-03-09T12:47:25.174Z,12.32
2018-03-09T12:50:00.175Z,12.97
2018-03-09T12:52:35.163Z,12.00
2018-03-09T12:55:10.686Z,12.73
2018-03-09T12:57:45.709Z,13.40
2018-03-09T13:00:20.415Z,13.05
2018-03-09T13:02:55.268Z,13.60
2018-03-09T13:05:30.235Z,13.40
2018-03-09T13:08:05.229Z,11.23
2018-03-09T13:10:40.015Z,13.40
2018-03-09T13:13:17.215Z,13.00
2018-03-09T13:15:53.760Z,11.83
2018-03-09T13:18:33.805Z,13.67
2018-03-09T13:21:09.620Z,13.20
2018-03-09T13:23:44.511Z,13.80
2018-03-09T13:26:19.651Z,11.50
2018-03-09T13:28:54.596Z,13.83
2018-03-09T13:31:29.630Z,11.67
2018-03-09T13:34:04.451Z,13.60
2018-03-09T13:36:39.413Z,11.87
2018-03-09T13:39:14.451Z,12.47
2018-03-09T13:41:49.587Z,13.70
2018-03-09T13:44:24.645Z,12.17
2018-03-09T13:46:59.875Z,14.68
2018-03-09T13:49:35.203Z,12.30
2018-03-09T13:52:10.652Z,13.40
2018-03-09T13:54:46.195Z,13.38
2018-03-09T13:57:21.439Z,14.13
2018-03-09T13:59:56.524Z,13.00
2018-03-09T14:02:31.672Z,13.53
2018-03-09T14:05:07.262Z,12.50
2018-03-09T14:07:42.239Z,12.10
2018-03-09T14:10:17.515Z,11.90
2018-03-09T14:12:52.466Z,13.30
2018-03-09T14:15:26.804Z,11.90
2018-03-09T14:18:01.777Z,12.00
2018-03-09T14:20:36.955Z,12.10
2018-03-09T14:23:11.792Z,12.07
2018-03-09T14:25:47.279Z,11.23
2018-03-09T14:28:22.523Z,11.75
2018-03-09T14:30:57.433Z,11.70
2018-03-09T14:33:32.030Z,11.15
2018-03-09T14:36:07.502Z,13.27
2018-03-09T14:38:42.367Z,11.60
2018-03-09T14:41:17.406Z,10.90
2018-03-09T14:43:52.356Z,11.63
2018-03-09T14:46:27.603Z,11.93
2018-03-09T14:49:02.492Z,12.57
2018-03-09T14:51:37.459Z,11.73
2018-03-09T14:54:12.659Z,11.87
2018-03-09T14:56:47.716Z,12.30
2018-03-09T14:59:23.272Z,11.82
2018-03-09T15:01:58.386Z,11.77
2018-03-09T15:04:33.630Z,9.63
2018-03-09T15:07:09.707Z,12.60
2018-03-09T15:09:44.486Z,12.00
2018-03-09T15:12:19.695Z,12.47
2018-03-09T15:14:54.857Z,11.13
2018-03-09T15:17:29.807Z,13.07
2018-03-09T15:20:04.435Z,13.33
2018-03-09T15:22:39.707Z,13.20
2018-03-09T15:25:15.070Z,12.77
2018-03-09T15:27:50.035Z,14.50
2018-03-09T15:30:24.810Z,13.73
2018-03-09T15:32:59.664Z,12.80
2018-03-09T15:35:34.554Z,14.80
2018-03-09T15:38:09.374Z,14.77
2018-03-09T15:40:44.635Z,12.10
2018-03-09T15:43:19.959Z,12.95
2018-03-09T15:45:54.836Z,10.53
2018-03-09T15:48:29.470Z,12.60
2018-03-09T15:51:04.228Z,12.80
2018-03-09T15:53:39.503Z,14.60
2018-03-09T15:56:14.772Z,13.40
2018-03-09T15:58:50.019Z,14.30
2018-03-09T16:01:25.050Z,14.23
2018-03-09T16:04:00.529Z,13.25
2018-03-09T16:06:35.632Z,13.20
2018-03-09T16:09:10.948Z,12.83
2018-03-09T16:11:47.596Z,13.93
2018-03-09T16:14:22.868Z,12.80
2018-03-09T16:16:57.589Z,12.10
2018-03-09T16:19:32.663Z,12.13
2018-03-09T16:22:07.020Z,12.80
2018-03-09T16:24:41.668Z,12.57
2018-03-09T16:27:16.833Z,12.27
2018-03-09T16:29:51.897Z,13.00
2018-03-09T16:32:27.158Z,13.43
2018-03-09T16:35:02.621Z,13.93
2018-03-09T16:37:37.883Z,13.63
2018-03-09T16:40:13.010Z,13.33
2018-03-09T16:42:47.882Z,13.20
2018-03-09T16:45:22.683Z,12.82
2018-03-09T16:47:57.687Z,12.50
2018-03-09T16:50:32.811Z,12.90
2018-03-09T16:53:07.874Z,12.03
2018-03-09T16:55:43.474Z,13.10
2018-03-09T16:58:18.947Z,13.80
2018-03-09T17:00:53.765Z,12.30
2018-03-09T17:03:28.814Z,13.53
2018-03-09T17:06:03.861Z,12.87
2018-03-09T17:08:38.731Z,14.03
2018-03-09T17:11:14.043Z,14.30
2018-03-09T17:13:48.979Z,13.27
2018-03-09T17:16:24.438Z,15.30
2018-03-09T17:18:59.328Z,14.30
2018-03-09T17:21:34.670Z,14.82
2018-03-09T17:24:10.149Z,15.00
2018-03-09T17:26:45.459Z,14.37
2018-03-09T17:29:20.795Z,14.73
2018-03-09T17:31:55.850Z,14.33
2018-03-09T17:34:30.883Z,16.20
2018-03-09T17:37:04.819Z,16.20
2018-03-09T17:39:39.856Z,15.33
2018-03-09T17:42:15.310Z,14.63
2018-03-09T17:44:50.106Z,15.13
2018-03-09T17:47:25.010Z,15.10
2018-03-09T17:50:00.316Z,14.97
2018-03-09T17:52:35.230Z,15.27
2018-03-09T17:55:10.163Z,14.50
2018-03-09T17:57:45.212Z,15.50
2018-03-09T18:00:20.891Z,15.45
2018-03-09T18:02:55.760Z,14.63
2018-03-09T18:05:30.295Z,16.37
2018-03-09T18:08:05.128Z,19.80
2018-03-09T18:10:40.338Z,18.60
2018-03-09T18:13:15.550Z,15.13
2018-03-09T18:15:50.431Z,15.10
2018-03-09T18:18:25.898Z,15.82
2018-03-09T18:21:00.908Z,15.80
2018-03-09T18:23:48.508Z,16.27
2018-03-09T18:26:23.425Z,16.00
2018-03-09T18:28:58.160Z,15.20
2018-03-09T18:31:33.211Z,14.60
2018-03-09T18:34:08.064Z,16.23
2018-03-09T18:36:42.976Z,15.53
2018-03-09T18:39:18.198Z,14.33
2018-03-09T18:41:53.291Z,16.40
2018-03-09T18:44:28.218Z,16.83
2018-03-09T18:47:03.114Z,15.73
2018-03-09T18:49:38.409Z,17.30
2018-03-09T18:52:14.157Z,19.02
2018-03-09T18:54:49.014Z,21.70
2018-03-09T18:57:24.406Z,20.10
2018-03-09T19:00:00.059Z,17.37
2018-03-09T19:02:34.987Z,15.30
2018-03-09T19:05:10.375Z,16.77
2018-03-09T19:07:44.950Z,16.77
2018-03-09T19:10:20.182Z,17.05
2018-03-09T19:12:55.090Z,17.17
2018-03-09T19:15:30.070Z,17.27
2018-03-09T19:18:04.696Z,17.63
2018-03-09T19:20:39.031Z,17.20
2018-03-09T19:23:14.211Z,17.80
2018-03-09T19:25:49.236Z,17.30
2018-03-09T19:28:24.364Z,17.50
2018-03-09T19:30:59.235Z,17.70
2018-03-09T19:33:34.275Z,16.53
2018-03-09T19:36:10.411Z,17.12
2018-03-09T19:38:44.830Z,18.20
2018-03-09T19:41:20.091Z,17.07
2018-03-09T19:43:55.118Z,18.10
2018-03-09T19:46:30.325Z,19.13
2018-03-09T19:49:04.563Z,17.80
2018-03-09T19:51:39.281Z,18.83
2018-03-09T19:54:14.499Z,19.70
2018-03-09T19:56:49.987Z,17.83
2018-03-09T19:59:25.033Z,17.65
2018-03-09T20:02:00.106Z,19.00
2018-03-09T20:04:34.854Z,20.13
2018-03-09T20:07:10.395Z,18.30
2018-03-09T20:09:45.655Z,19.37
2018-03-09T20:12:20.337Z,17.70
2018-03-09T20:14:55.563Z,19.33
2018-03-09T20:17:30.555Z,19.00
2018-03-09T20:20:05.347Z,19.90
2018-03-09T20:22:40.400Z,19.33
2018-03-09T20:25:16.226Z,18.15
2018-03-09T20:27:50.596Z,18.90
2018-03-09T20:30:26.023Z,19.15
2018-03-09T20:33:01.344Z,21.17
2018-03-09T20:35:36.015Z,20.58
2018-03-09T20:38:11.104Z,18.65
2018-03-09T20:40:46.150Z,20.37
2018-03-09T20:43:21.400Z,20.17
2018-03-09T20:45:56.383Z,20.90
2018-03-09T20:48:31.384Z,17.97
2018-03-09T20:51:08.947Z,20.63
2018-03-09T20:53:43.244Z,20.20
2018-03-09T20:56:18.523Z,20.40
2018-03-09T20:58:53.188Z,18.13
2018-03-09T21:01:28.154Z,20.50
2018-03-09T21:04:03.304Z,19.93
2018-03-09T21:06:38.274Z,18.60
2018-03-09T21:09:13.571Z,19.20
2018-03-09T21:11:48.627Z,19.30
2018-03-09T21:14:23.699Z,20.50
2018-03-09T21:16:58.263Z,19.40
2018-03-09T21:19:33.276Z,22.30
2018-03-09T21:22:08.740Z,19.13
2018-03-09T21:24:44.198Z,19.08
2018-03-09T21:27:18.792Z,20.73
2018-03-09T21:29:53.276Z,43.70
2018-03-09T21:32:28.412Z,20.73
2018-03-09T21:35:03.255Z,20.67
2018-03-09T21:37:38.398Z,21.27
2018-03-09T21:40:13.531Z,21.03
2018-03-09T21:42:48.361Z,22.13
2018-03-09T21:45:23.550Z,22.73
2018-03-09T21:47:58.384Z,20.57
2018-03-09T21:50:33.318Z,20.57
2018-03-09T21:53:08.567Z,21.10
2018-03-09T21:55:43.598Z,21.30
2018-03-09T21:58:18.562Z,20.83
2018-03-09T22:00:53.270Z,20.57
2018-03-09T22:03:27.606Z,22.43
2018-03-09T22:06:02.342Z,22.13
2018-03-09T22:08:36.684Z,21.97
2018-03-09T22:11:12.239Z,21.80
2018-03-09T22:13:47.336Z,21.07
2018-03-09T22:16:22.279Z,20.23
2018-03-09T22:18:57.572Z,20.60
2018-03-09T22:21:32.447Z,22.60
2018-03-09T22:24:07.411Z,22.13
2018-03-09T22:26:42.451Z,21.10
2018-03-09T22:29:16.784Z,22.00
2018-03-09T22:31:52.216Z,21.92
2018-03-09T22:34:26.850Z,20.60
2018-03-09T22:37:01.916Z,20.20
2018-03-09T22:39:36.743Z,21.47
2018-03-09T22:42:11.194Z,20.50
2018-03-09T22:44:46.315Z,19.05
2018-03-09T22:47:21.898Z,20.13
2018-03-09T22:49:56.548Z,20.40
2018-03-09T22:52:31.806Z,20.83
2018-03-09T22:55:06.434Z,20.05
2018-03-09T22:57:41.575Z,19.53
2018-03-09T23:00:16.699Z,19.40
2018-03-09T23:02:51.847Z,18.97
2018-03-09T23:05:26.878Z,18.57
2018-03-09T23:08:01.745Z,18.87
2018-03-09T23:10:36.896Z,18.07
2018-03-09T23:13:12.718Z,18.70
2018-03-09T23:15:47.544Z,19.10
2018-03-09T23:18:22.034Z,17.17
2018-03-09T23:20:57.522Z,17.73
2018-03-09T23:23:32.511Z,16.87
2018-03-09T23:26:07.552Z,18.80
2018-03-09T23:28:41.899Z,17.03
2018-03-09T23:31:16.967Z,15.50
2018-03-09T23:33:51.811Z,16.63
2018-03-09T23:36:26.547Z,17.58
2018-03-09T23:39:01.777Z,15.33
2018-03-09T23:41:36.834Z,16.10
2018-03-09T23:44:11.695Z,16.53
2018-03-09T23:46:46.617Z,17.17
2018-03-09T23:49:22.054Z,15.47
2018-03-09T23:51:56.692Z,16.03
2018-03-09T23:54:31.643Z,14.07
2018-03-09T23:57:06.638Z,15.50
2018-03-09T23:59:42.123Z,15.20
